sensor_id;sensor_type;location;lat;lon;timestamp;pressure;altitude;pressure_sealevel;temperature;humidity
59289;BME280;45056;47.602;9.886;2022-12-10T00:01:48;91482.72;;;2.66;69.86
59289;BME280;45056;47.602;9.886;2022-12-10T00:04:18;91481.22;;;2.65;69.84
59289;BME280;45056;47.602;9.886;2022-12-10T00:06:47;91485.94;;;2.61;69.98
59289;BME280;45056;47.602;9.886;2022-12-10T00:09:18;91488.31;;;2.59;70.02
59289;BME280;45056;47.602;9.886;2022-12-10T00:11:48;91482.94;;;2.59;69.97
59289;BME280;45056;47.602;9.886;2022-12-10T00:14:16;91480.25;;;2.59;70.38
59289;BME280;45056;47.602;9.886;2022-12-10T00:16:45;91473.78;;;2.56;70.30
59289;BME280;45056;47.602;9.886;2022-12-10T00:19:13;91481.09;;;2.56;70.13
59289;BME280;45056;47.602;9.886;2022-12-10T00:21:43;91480.78;;;2.54;70.26
59289;BME280;45056;47.602;9.886;2022-12-10T00:24:12;91474.63;;;2.53;70.22
59289;BME280;45056;47.602;9.886;2022-12-10T00:26:41;91479.28;;;2.53;70.53
59289;BME280;45056;47.602;9.886;2022-12-10T00:29:12;91471.22;;;2.53;70.52
59289;BME280;45056;47.602;9.886;2022-12-10T00:31:40;91468.53;;;2.53;70.41
59289;BME280;45056;47.602;9.886;2022-12-10T00:34:10;91476.59;;;2.53;70.44
59289;BME280;45056;47.602;9.886;2022-12-10T00:36:41;91478.09;;;2.54;70.34
59289;BME280;45056;47.602;9.886;2022-12-10T00:39:14;91478.09;;;2.54;70.25
59289;BME280;45056;47.602;9.886;2022-12-10T00:41:45;91475.41;;;2.54;70.45
59289;BME280;45056;47.602;9.886;2022-12-10T00:44:15;91473.03;;;2.56;70.16
59289;BME280;45056;47.602;9.886;2022-12-10T00:46:44;91476.06;;;2.58;70.06
59289;BME280;45056;47.602;9.886;2022-12-10T00:49:12;91468.75;;;2.58;70.19
59289;BME280;45056;47.602;9.886;2022-12-10T00:51:40;91478.31;;;2.59;70.13
59289;BME280;45056;47.602;9.886;2022-12-10T00:54:09;91471.34;;;2.62;70.09
59289;BME280;45056;47.602;9.886;2022-12-10T00:56:37;91474.03;;;2.62;69.96
59289;BME280;45056;47.602;9.886;2022-12-10T00:59:07;91475.53;;;2.63;69.67
59289;BME280;45056;47.602;9.886;2022-12-10T01:01:37;91473.59;;;2.64;69.75
59289;BME280;45056;47.602;9.886;2022-12-10T01:04:08;91475.09;;;2.65;69.74
59289;BME280;45056;47.602;9.886;2022-12-10T01:06:42;91467.78;;;2.65;69.62
59289;BME280;45056;47.602;9.886;2022-12-10T01:09:13;91465.88;;;2.66;69.52
59289;BME280;45056;47.602;9.886;2022-12-10T01:11:45;91478.88;;;2.67;69.81
59289;BME280;45056;47.602;9.886;2022-12-10T01:14:18;91480.38;;;2.68;69.73
59289;BME280;45056;47.602;9.886;2022-12-10T01:16:49;91481.13;;;2.69;69.64
59289;BME280;45056;47.602;9.886;2022-12-10T01:19:21;91464.25;;;2.68;69.54
59289;BME280;45056;47.602;9.886;2022-12-10T01:21:50;91479.31;;;2.66;69.64
59289;BME280;45056;47.602;9.886;2022-12-10T01:24:19;91474.03;;;2.62;69.67
59289;BME280;45056;47.602;9.886;2022-12-10T01:26:48;91473.69;;;2.60;69.93
59289;BME280;45056;47.602;9.886;2022-12-10T01:29:18;91476.06;;;2.58;69.79
59289;BME280;45056;47.602;9.886;2022-12-10T01:31:50;91479.16;;;2.56;69.65
59289;BME280;45056;47.602;9.886;2022-12-10T01:34:20;91477.31;;;2.53;69.88
59289;BME280;45056;47.602;9.886;2022-12-10T01:36:51;91478.19;;;2.50;70.13
59289;BME280;45056;47.602;9.886;2022-12-10T01:39:22;91477.09;;;2.48;70.20
59289;BME280;45056;47.602;9.886;2022-12-10T01:41:53;91474.84;;;2.46;70.35
59289;BME280;45056;47.602;9.886;2022-12-10T01:47:32;91478.59;;;2.36;70.91
59289;BME280;45056;47.602;9.886;2022-12-10T01:50:00;91474.81;;;2.33;70.73
59289;BME280;45056;47.602;9.886;2022-12-10T01:52:28;91476.38;;;2.30;71.17
59289;BME280;45056;47.602;9.886;2022-12-10T01:54:56;91484.44;;;2.30;71.18
59289;BME280;45056;47.602;9.886;2022-12-10T01:57:27;91485.22;;;2.31;71.31
59289;BME280;45056;47.602;9.886;2022-12-10T02:00:01;91476.31;;;2.34;71.11
59289;BME280;45056;47.602;9.886;2022-12-10T02:02:42;91476.63;;;2.36;71.24
59289;BME280;45056;47.602;9.886;2022-12-10T02:05:26;91474.72;;;2.37;71.12
59289;BME280;45056;47.602;9.886;2022-12-10T02:08:08;91467.06;;;2.35;71.00
59289;BME280;45056;47.602;9.886;2022-12-10T02:10:56;91469.03;;;2.35;71.18
59289;BME280;45056;47.602;9.886;2022-12-10T02:13:39;91462.88;;;2.34;71.23
59289;BME280;45056;47.602;9.886;2022-12-10T02:16:26;91468.25;;;2.34;71.19
59289;BME280;45056;47.602;9.886;2022-12-10T02:19:10;91465.56;;;2.34;70.93
59289;BME280;45056;47.602;9.886;2022-12-10T02:21:49;91467.84;;;2.36;71.23
59289;BME280;45056;47.602;9.886;2022-12-10T02:24:24;91474.28;;;2.38;70.94
59289;BME280;45056;47.602;9.886;2022-12-10T02:27:03;91471.19;;;2.40;70.98
59289;BME280;45056;47.602;9.886;2022-12-10T02:29:43;91468.06;;;2.41;70.93
59289;BME280;45056;47.602;9.886;2022-12-10T02:32:19;91471.06;;;2.43;70.91
59289;BME280;45056;47.602;9.886;2022-12-10T02:34:55;91467.53;;;2.47;70.68
59289;BME280;45056;47.602;9.886;2022-12-10T02:37:32;91470.97;;;2.47;70.71
59289;BME280;45056;47.602;9.886;2022-12-10T02:40:09;91454.78;;;2.51;70.74
59289;BME280;45056;47.602;9.886;2022-12-10T02:42:49;91445.53;;;2.52;70.32
59289;BME280;45056;47.602;9.886;2022-12-10T02:45:23;91453.28;;;2.50;70.10
59289;BME280;45056;47.602;9.886;2022-12-10T02:47:57;91445.63;;;2.48;70.50
59289;BME280;45056;47.602;9.886;2022-12-10T02:50:27;91442.94;;;2.48;70.65
59289;BME280;45056;47.602;9.886;2022-12-10T02:52:55;91449.91;;;2.45;70.46
59289;BME280;45056;47.602;9.886;2022-12-10T02:55:23;91444.97;;;2.44;70.27
59289;BME280;45056;47.602;9.886;2022-12-10T02:58:10;91436.50;;;2.45;70.49
59289;BME280;45056;47.602;9.886;2022-12-10T03:01:02;91435.31;;;2.47;70.45
59289;BME280;45056;47.602;9.886;2022-12-10T03:03:44;91439.50;;;2.48;70.58
59289;BME280;45056;47.602;9.886;2022-12-10T03:06:22;91443.69;;;2.49;70.44
59289;BME280;45056;47.602;9.886;2022-12-10T03:09:01;91433.72;;;2.49;70.46
59289;BME280;45056;47.602;9.886;2022-12-10T03:11:33;91436.00;;;2.51;70.23
59289;BME280;45056;47.602;9.886;2022-12-10T03:14:06;91440.19;;;2.52;70.40
59289;BME280;45056;47.602;9.886;2022-12-10T03:16:46;91440.19;;;2.52;70.26
59289;BME280;45056;47.602;9.886;2022-12-10T03:19:23;91441.69;;;2.53;70.05
59289;BME280;45056;47.602;9.886;2022-12-10T03:21:56;91439.31;;;2.55;70.09
59289;BME280;45056;47.602;9.886;2022-12-10T03:24:27;91447.38;;;2.55;69.93
59289;BME280;45056;47.602;9.886;2022-12-10T03:26:58;91451.13;;;2.57;69.87
59289;BME280;45056;47.602;9.886;2022-12-10T03:29:31;91453.06;;;2.57;69.88
59289;BME280;45056;47.602;9.886;2022-12-10T03:32:05;91443.84;;;2.58;69.91
59289;BME280;45056;47.602;9.886;2022-12-10T03:34:35;91439.97;;;2.59;69.90
59289;BME280;45056;47.602;9.886;2022-12-10T03:37:06;91446.06;;;2.59;69.92
59289;BME280;45056;47.602;9.886;2022-12-10T03:39:34;91449.19;;;2.58;69.93
59289;BME280;45056;47.602;9.886;2022-12-10T03:42:04;91453.81;;;2.57;69.91
59289;BME280;45056;47.602;9.886;2022-12-10T03:44:34;91453.81;;;2.57;69.97
59289;BME280;45056;47.602;9.886;2022-12-10T03:47:06;91453.06;;;2.57;69.89
59289;BME280;45056;47.602;9.886;2022-12-10T03:49:38;91443.06;;;2.57;69.99
59289;BME280;45056;47.602;9.886;2022-12-10T03:52:06;91443.06;;;2.57;69.74
59289;BME280;45056;47.602;9.886;2022-12-10T03:54:34;91436.09;;;2.60;69.71
59289;BME280;45056;47.602;9.886;2022-12-10T03:57:03;91451.44;;;2.59;69.77
59289;BME280;45056;47.602;9.886;2022-12-10T03:59:31;91454.91;;;2.60;69.89
59289;BME280;45056;47.602;9.886;2022-12-10T04:01:59;91444.16;;;2.60;69.96
59289;BME280;45056;47.602;9.886;2022-12-10T04:04:29;91453.72;;;2.61;69.72
59289;BME280;45056;47.602;9.886;2022-12-10T04:06:58;91456.81;;;2.59;69.72
59289;BME280;45056;47.602;9.886;2022-12-10T04:09:26;91458.75;;;2.59;69.62
59289;BME280;45056;47.602;9.886;2022-12-10T04:11:55;91471.00;;;2.60;69.78
59289;BME280;45056;47.602;9.886;2022-12-10T04:14:25;91478.31;;;2.59;69.61
59289;BME280;45056;47.602;9.886;2022-12-10T04:17:12;91476.78;;;2.58;69.74
59289;BME280;45056;47.602;9.886;2022-12-10T04:19:42;91470.69;;;2.58;69.70
59289;BME280;45056;47.602;9.886;2022-12-10T04:22:10;91469.19;;;2.57;69.66
59289;BME280;45056;47.602;9.886;2022-12-10T04:24:55;91466.91;;;2.55;69.64
59289;BME280;45056;47.602;9.886;2022-12-10T04:27:41;91464.66;;;2.54;69.57
59289;BME280;45056;47.602;9.886;2022-12-10T04:30:11;91470.88;;;2.51;69.65
59289;BME280;45056;47.602;9.886;2022-12-10T04:32:40;91464.75;;;2.50;69.68
59289;BME280;45056;47.602;9.886;2022-12-10T04:35:10;91469.81;;;2.48;69.75
59289;BME280;45056;47.602;9.886;2022-12-10T04:37:38;91469.03;;;2.48;69.57
59289;BME280;45056;47.602;9.886;2022-12-10T04:40:08;91469.88;;;2.44;69.83
59289;BME280;45056;47.602;9.886;2022-12-10T04:42:37;91461.94;;;2.41;69.43
59289;BME280;45056;47.602;9.886;2022-12-10T04:45:06;91462.88;;;2.34;69.37
59289;BME280;45056;47.602;9.886;2022-12-10T04:47:34;91456.22;;;2.26;69.64
59289;BME280;45056;47.602;9.886;2022-12-10T04:50:03;91451.03;;;2.19;69.55
59289;BME280;45056;47.602;9.886;2022-12-10T04:52:33;91455.00;;;2.14;69.81
59289;BME280;45056;47.602;9.886;2022-12-10T04:55:01;91445.09;;;2.11;70.04
59289;BME280;45056;47.602;9.886;2022-12-10T04:57:29;91447.88;;;2.07;70.31
59289;BME280;45056;47.602;9.886;2022-12-10T04:59:57;91442.50;;;2.07;70.38
59289;BME280;45056;47.602;9.886;2022-12-10T05:02:25;91427.25;;;2.04;70.24
59289;BME280;45056;47.602;9.886;2022-12-10T05:04:54;91428.44;;;2.03;70.46
59289;BME280;45056;47.602;9.886;2022-12-10T05:07:22;91431.13;;;2.03;70.51
59289;BME280;45056;47.602;9.886;2022-12-10T05:09:51;91434.56;;;2.04;70.56
59289;BME280;45056;47.602;9.886;2022-12-10T05:12:19;91434.97;;;2.02;70.72
59289;BME280;45056;47.602;9.886;2022-12-10T05:14:47;91448.41;;;2.02;70.50
59289;BME280;45056;47.602;9.886;2022-12-10T05:17:15;91438.41;;;2.02;70.68
59289;BME280;45056;47.602;9.886;2022-12-10T05:19:43;91444.13;;;2.05;70.74
59289;BME280;45056;47.602;9.886;2022-12-10T05:22:11;91442.19;;;2.05;70.66
59289;BME280;45056;47.602;9.886;2022-12-10T05:24:58;91434.47;;;2.07;70.62
59289;BME280;45056;47.602;9.886;2022-12-10T05:27:31;91436.28;;;2.10;70.63
59289;BME280;45056;47.602;9.886;2022-12-10T05:30:00;91445.44;;;2.13;70.59
59289;BME280;45056;47.602;9.886;2022-12-10T05:32:28;91442.31;;;2.14;70.55
59289;BME280;45056;47.602;9.886;2022-12-10T05:34:56;91454.13;;;2.17;70.37
59289;BME280;45056;47.602;9.886;2022-12-10T05:37:24;91461.34;;;2.20;70.31
59289;BME280;45056;47.602;9.886;2022-12-10T05:39:52;91453.63;;;2.22;70.28
59289;BME280;45056;47.602;9.886;2022-12-10T05:42:21;91456.63;;;2.24;70.29
59289;BME280;45056;47.602;9.886;2022-12-10T05:44:49;91455.13;;;2.23;70.29
59289;BME280;45056;47.602;9.886;2022-12-10T05:47:17;91449.41;;;2.21;70.18
59289;BME280;45056;47.602;9.886;2022-12-10T05:49:46;91447.59;;;2.18;69.97
59289;BME280;45056;47.602;9.886;2022-12-10T05:52:14;91451.13;;;2.15;70.08
59289;BME280;45056;47.602;9.886;2022-12-10T05:54:42;91456.50;;;2.15;70.20
59289;BME280;45056;47.602;9.886;2022-12-10T05:57:10;91456.06;;;2.16;70.22
59289;BME280;45056;47.602;9.886;2022-12-10T05:59:41;91454.88;;;2.17;70.46
59289;BME280;45056;47.602;9.886;2022-12-10T06:02:10;91448.34;;;2.19;70.38
59289;BME280;45056;47.602;9.886;2022-12-10T06:04:38;91456.28;;;2.22;70.48
59289;BME280;45056;47.602;9.886;2022-12-10T06:07:06;91453.19;;;2.24;70.23
59289;BME280;45056;47.602;9.886;2022-12-10T06:09:34;91447.41;;;2.25;70.18
59289;BME280;45056;47.602;9.886;2022-12-10T06:12:02;91450.84;;;2.26;70.16
59289;BME280;45056;47.602;9.886;2022-12-10T06:14:31;91448.91;;;2.26;69.93
59289;BME280;45056;47.602;9.886;2022-12-10T06:17:00;91451.91;;;2.28;70.17
59289;BME280;45056;47.602;9.886;2022-12-10T06:19:28;91457.28;;;2.28;70.14
59289;BME280;45056;47.602;9.886;2022-12-10T06:21:56;91462.22;;;2.30;70.28
59289;BME280;45056;47.602;9.886;2022-12-10T06:24:25;91459.88;;;2.32;70.28
59289;BME280;45056;47.602;9.886;2022-12-10T06:26:53;91459.88;;;2.32;69.85
59289;BME280;45056;47.602;9.886;2022-12-10T06:29:21;91461.38;;;2.33;70.02
59289;BME280;45056;47.602;9.886;2022-12-10T06:31:50;91466.34;;;2.35;70.05
59289;BME280;45056;47.602;9.886;2022-12-10T06:34:19;91467.06;;;2.35;69.75
59289;BME280;45056;47.602;9.886;2022-12-10T06:36:48;91469.75;;;2.35;69.88
59289;BME280;45056;47.602;9.886;2022-12-10T06:39:16;91471.25;;;2.36;70.08
59289;BME280;45056;47.602;9.886;2022-12-10T06:41:45;91480.50;;;2.35;69.87
59289;BME280;45056;47.602;9.886;2022-12-10T06:44:13;91473.22;;;2.36;69.83
59289;BME280;45056;47.602;9.886;2022-12-10T06:46:41;91478.59;;;2.36;69.92
59289;BME280;45056;47.602;9.886;2022-12-10T06:49:10;91484.69;;;2.36;69.58
59289;BME280;45056;47.602;9.886;2022-12-10T06:51:39;91498.09;;;2.36;69.80
59289;BME280;45056;47.602;9.886;2022-12-10T06:54:07;91478.59;;;2.36;69.68
59289;BME280;45056;47.602;9.886;2022-12-10T06:56:35;91476.63;;;2.36;69.66
59289;BME280;45056;47.602;9.886;2022-12-10T06:59:04;91482.00;;;2.36;69.72
59289;BME280;45056;47.602;9.886;2022-12-10T07:01:33;91491.56;;;2.37;69.77
59289;BME280;45056;47.602;9.886;2022-12-10T07:04:01;91495.75;;;2.38;69.70
59289;BME280;45056;47.602;9.886;2022-12-10T07:06:30;91488.88;;;2.37;69.78
59289;BME280;45056;47.602;9.886;2022-12-10T07:09:01;91494.69;;;2.36;69.63
59289;BME280;45056;47.602;9.886;2022-12-10T07:11:29;91492.00;;;2.36;69.52
59289;BME280;45056;47.602;9.886;2022-12-10T07:13:58;91489.72;;;2.34;69.71
59289;BME280;45056;47.602;9.886;2022-12-10T07:16:29;91490.56;;;2.31;69.63
59289;BME280;45056;47.602;9.886;2022-12-10T07:19:00;91495.19;;;2.30;69.63
59289;BME280;45056;47.602;9.886;2022-12-10T07:21:31;91495.94;;;2.31;69.52
59289;BME280;45056;47.602;9.886;2022-12-10T07:24:04;91506.69;;;2.31;69.84
59289;BME280;45056;47.602;9.886;2022-12-10T07:26:36;91505.19;;;2.30;69.76
59289;BME280;45056;47.602;9.886;2022-12-10T07:29:09;91514.41;;;2.29;69.74
59289;BME280;45056;47.602;9.886;2022-12-10T07:31:41;91519.78;;;2.29;69.50
59289;BME280;45056;47.602;9.886;2022-12-10T07:34:09;91516.75;;;2.27;69.82
59289;BME280;45056;47.602;9.886;2022-12-10T07:36:38;91519.44;;;2.27;69.81
59289;BME280;45056;47.602;9.886;2022-12-10T07:39:09;91512.91;;;2.28;69.91
59289;BME280;45056;47.602;9.886;2022-12-10T07:41:43;91513.63;;;2.28;69.55
59289;BME280;45056;47.602;9.886;2022-12-10T07:44:12;91514.81;;;2.27;69.60
59289;BME280;45056;47.602;9.886;2022-12-10T07:46:40;91509.03;;;2.29;69.79
59289;BME280;45056;47.602;9.886;2022-12-10T07:49:09;91514.41;;;2.29;69.56
59289;BME280;45056;47.602;9.886;2022-12-10T07:51:37;91512.91;;;2.28;69.68
59289;BME280;45056;47.602;9.886;2022-12-10T07:54:05;91504.09;;;2.27;69.58
59289;BME280;45056;47.602;9.886;2022-12-10T07:56:35;91514.09;;;2.27;69.48
59289;BME280;45056;47.602;9.886;2022-12-10T07:59:03;91515.25;;;2.26;69.57
59289;BME280;45056;47.602;9.886;2022-12-10T08:01:31;91516.00;;;2.26;69.48
59289;BME280;45056;47.602;9.886;2022-12-10T08:03:59;91513.75;;;2.25;69.50
59289;BME280;45056;47.602;9.886;2022-12-10T08:06:28;91518.47;;;2.21;69.63
59289;BME280;45056;47.602;9.886;2022-12-10T08:08:59;91521.16;;;2.21;69.75
59289;BME280;45056;47.602;9.886;2022-12-10T08:11:27;91525.34;;;2.22;69.75
59289;BME280;45056;47.602;9.886;2022-12-10T08:13:57;91534.44;;;2.24;69.66
59289;BME280;45056;47.602;9.886;2022-12-10T08:16:27;91523.31;;;2.26;69.72
59289;BME280;45056;47.602;9.886;2022-12-10T08:18:59;91525.56;;;2.27;69.90
59289;BME280;45056;47.602;9.886;2022-12-10T08:21:31;91530.50;;;2.29;69.66
59289;BME280;45056;47.602;9.886;2022-12-10T08:24:00;91527.72;;;2.33;69.52
59289;BME280;45056;47.602;9.886;2022-12-10T08:26:31;91520.03;;;2.35;69.59
59289;BME280;45056;47.602;9.886;2022-12-10T08:29:01;91522.72;;;2.35;69.56
59289;BME280;45056;47.602;9.886;2022-12-10T08:31:30;91520.03;;;2.35;69.48
59289;BME280;45056;47.602;9.886;2022-12-10T08:33:58;91516.91;;;2.36;69.35
59289;BME280;45056;47.602;9.886;2022-12-10T08:36:27;91524.88;;;2.40;69.25
59289;BME280;45056;47.602;9.886;2022-12-10T08:38:55;91536.34;;;2.40;69.15
59289;BME280;45056;47.602;9.886;2022-12-10T08:41:23;91528.63;;;2.42;69.00
59289;BME280;45056;47.602;9.886;2022-12-10T08:43:52;91523.25;;;2.42;68.85
59289;BME280;45056;47.602;9.886;2022-12-10T08:46:22;91521.75;;;2.41;68.88
59289;BME280;45056;47.602;9.886;2022-12-10T08:48:51;91526.47;;;2.37;69.11
59289;BME280;45056;47.602;9.886;2022-12-10T08:51:19;91524.22;;;2.36;68.96
59289;BME280;45056;47.602;9.886;2022-12-10T08:53:48;91530.06;;;2.30;68.80
59289;BME280;45056;47.602;9.886;2022-12-10T08:56:16;91535.22;;;2.25;69.04
59289;BME280;45056;47.602;9.886;2022-12-10T08:58:44;91530.69;;;2.22;69.36
59289;BME280;45056;47.602;9.886;2022-12-10T09:01:15;91538.41;;;2.20;69.25
59289;BME280;45056;47.602;9.886;2022-12-10T09:03:46;91541.50;;;2.18;69.73
59289;BME280;45056;47.602;9.886;2022-12-10T09:06:16;91545.28;;;2.21;69.74
59289;BME280;45056;47.602;9.886;2022-12-10T09:08:47;91543.69;;;2.23;69.49
59289;BME280;45056;47.602;9.886;2022-12-10T09:11:18;91553.91;;;2.28;69.32
59289;BME280;45056;47.602;9.886;2022-12-10T09:13:48;91557.25;;;2.33;69.46
59289;BME280;45056;47.602;9.886;2022-12-10T09:16:16;91556.84;;;2.34;69.60
59289;BME280;45056;47.602;9.886;2022-12-10T09:18:46;91556.75;;;2.38;69.42
59289;BME280;45056;47.602;9.886;2022-12-10T09:21:16;91564.38;;;2.39;69.41
59289;BME280;45056;47.602;9.886;2022-12-10T09:23:45;91563.19;;;2.40;69.37
59289;BME280;45056;47.602;9.886;2022-12-10T09:26:15;91557.75;;;2.44;69.34
59289;BME280;45056;47.602;9.886;2022-12-10T09:28:44;91561.50;;;2.47;69.26
59289;BME280;45056;47.602;9.886;2022-12-10T09:31:14;91565.28;;;2.49;69.04
59289;BME280;45056;47.602;9.886;2022-12-10T09:33:46;91556.81;;;2.51;69.01
59289;BME280;45056;47.602;9.886;2022-12-10T09:36:16;91558.66;;;2.54;68.99
59289;BME280;45056;47.602;9.886;2022-12-10T09:38:45;91552.84;;;2.55;69.12
59289;BME280;45056;47.602;9.886;2022-12-10T09:44:44;91560.03;;;2.58;68.63
59289;BME280;45056;47.602;9.886;2022-12-10T09:47:26;91554.25;;;2.60;68.94
59289;BME280;45056;47.602;9.886;2022-12-10T09:50:13;91561.13;;;2.61;68.75
59289;BME280;45056;47.602;9.886;2022-12-10T09:52:48;91553.09;;;2.61;68.90
59289;BME280;45056;47.602;9.886;2022-12-10T09:55:20;91559.19;;;2.62;68.86
59289;BME280;45056;47.602;9.886;2022-12-10T09:57:56;91557.69;;;2.60;68.87
59289;BME280;45056;47.602;9.886;2022-12-10T10:00:30;91553.50;;;2.59;68.97
59289;BME280;45056;47.602;9.886;2022-12-10T10:03:02;91555.44;;;2.59;68.97
59289;BME280;45056;47.602;9.886;2022-12-10T10:05:37;91549.75;;;2.57;68.75
59289;BME280;45056;47.602;9.886;2022-12-10T10:08:17;91562.00;;;2.58;68.99
59289;BME280;45056;47.602;9.886;2022-12-10T10:10:52;91563.50;;;2.59;68.75
59289;BME280;45056;47.602;9.886;2022-12-10T10:13:30;91576.91;;;2.59;68.61
59289;BME280;45056;47.602;9.886;2022-12-10T10:16:23;91573.06;;;2.60;68.82
59289;BME280;45056;47.602;9.886;2022-12-10T10:18:59;91576.16;;;2.58;68.70
59289;BME280;45056;47.602;9.886;2022-12-10T10:21:35;91568.88;;;2.59;68.53
59289;BME280;45056;47.602;9.886;2022-12-10T10:24:12;91575.75;;;2.60;68.44
59289;BME280;45056;47.602;9.886;2022-12-10T10:26:43;91577.25;;;2.61;68.44
59289;BME280;45056;47.602;9.886;2022-12-10T10:29:16;91578.75;;;2.62;68.62
59289;BME280;45056;47.602;9.886;2022-12-10T10:31:46;91571.03;;;2.64;68.67
59289;BME280;45056;47.602;9.886;2022-12-10T10:34:18;91573.72;;;2.64;68.79
59289;BME280;45056;47.602;9.886;2022-12-10T10:36:56;91584.78;;;2.66;68.66
59289;BME280;45056;47.602;9.886;2022-12-10T10:39:28;91570.94;;;2.68;68.69
59289;BME280;45056;47.602;9.886;2022-12-10T10:41:59;91572.84;;;2.67;68.38
59289;BME280;45056;47.602;9.886;2022-12-10T10:44:38;91573.19;;;2.69;68.52
59289;BME280;45056;47.602;9.886;2022-12-10T10:47:26;91579.31;;;2.70;68.36
59289;BME280;45056;47.602;9.886;2022-12-10T10:49:56;91577.81;;;2.69;68.42
59289;BME280;45056;47.602;9.886;2022-12-10T10:52:30;91578.56;;;2.69;68.27
59289;BME280;45056;47.602;9.886;2022-12-10T10:55:04;91580.06;;;2.70;68.05
59289;BME280;45056;47.602;9.886;2022-12-10T10:57:35;91578.56;;;2.69;68.18
59289;BME280;45056;47.602;9.886;2022-12-10T11:00:17;91581.25;;;2.69;68.26
59289;BME280;45056;47.602;9.886;2022-12-10T11:02:49;91574.69;;;2.70;68.07
59289;BME280;45056;47.602;9.886;2022-12-10T11:05:22;91573.19;;;2.69;68.01
59289;BME280;45056;47.602;9.886;2022-12-10T11:08:01;91580.50;;;2.69;68.31
59289;BME280;45056;47.602;9.886;2022-12-10T11:10:31;91581.25;;;2.69;68.13
59289;BME280;45056;47.602;9.886;2022-12-10T11:13:05;91584.78;;;2.66;67.94
59289;BME280;45056;47.602;9.886;2022-12-10T11:15:36;91585.63;;;2.63;67.82
59289;BME280;45056;47.602;9.886;2022-12-10T11:18:25;91587.22;;;2.60;67.71
59289;BME280;45056;47.602;9.886;2022-12-10T11:21:00;91580.34;;;2.59;67.63
59289;BME280;45056;47.602;9.886;2022-12-10T11:23:39;91586.91;;;2.58;67.60
59289;BME280;45056;47.602;9.886;2022-12-10T11:26:36;91599.56;;;2.58;67.57
59289;BME280;45056;47.602;9.886;2022-12-10T11:29:32;91597.31;;;2.56;67.52
59289;BME280;45056;47.602;9.886;2022-12-10T11:32:37;91609.22;;;2.55;67.37
59289;BME280;45056;47.602;9.886;2022-12-10T11:35:28;91604.69;;;2.52;67.26
59289;BME280;45056;47.602;9.886;2022-12-10T11:38:21;91620.47;;;2.50;67.22
59289;BME280;45056;47.602;9.886;2022-12-10T11:41:02;91610.16;;;2.49;67.30
59289;BME280;45056;47.602;9.886;2022-12-10T11:43:50;91607.13;;;2.47;67.27
59289;BME280;45056;47.602;9.886;2022-12-10T11:47:06;91606.91;;;2.41;67.15
59289;BME280;45056;47.602;9.886;2022-12-10T11:50:00;91613.88;;;2.38;67.23
59289;BME280;45056;47.602;9.886;2022-12-10T11:52:54;91610.84;;;2.36;67.33
59289;BME280;45056;47.602;9.886;2022-12-10T11:55:52;91612.44;;;2.34;67.46
59289;BME280;45056;47.602;9.886;2022-12-10T11:58:43;91619.34;;;2.35;67.71
59289;BME280;45056;47.602;9.886;2022-12-10T12:01:40;91618.56;;;2.34;67.64
59289;BME280;45056;47.602;9.886;2022-12-10T12:04:30;91619.34;;;2.35;67.40
59289;BME280;45056;47.602;9.886;2022-12-10T12:07:33;91615.56;;;2.32;67.67
59289;BME280;45056;47.602;9.886;2022-12-10T12:10:29;91606.31;;;2.33;67.53
59289;BME280;45056;47.602;9.886;2022-12-10T12:13:13;91611.28;;;2.35;67.40
59289;BME280;45056;47.602;9.886;2022-12-10T12:15:52;91610.94;;;2.33;67.65
59289;BME280;45056;47.602;9.886;2022-12-10T12:18:36;91615.56;;;2.32;67.71
59289;BME280;45056;47.602;9.886;2022-12-10T12:21:14;91620.94;;;2.32;67.53
59289;BME280;45056;47.602;9.886;2022-12-10T12:23:50;91632.84;;;2.31;67.68
59289;BME280;45056;47.602;9.886;2022-12-10T12:26:27;91631.34;;;2.30;67.57
59289;BME280;45056;47.602;9.886;2022-12-10T12:29:12;91633.25;;;2.29;67.87
59289;BME280;45056;47.602;9.886;2022-12-10T12:31:52;91634.41;;;2.28;67.73
59289;BME280;45056;47.602;9.886;2022-12-10T12:34:33;91657.06;;;2.27;67.84
59289;BME280;45056;47.602;9.886;2022-12-10T12:37:17;91655.56;;;2.26;67.46
59289;BME280;45056;47.602;9.886;2022-12-10T12:39:54;91667.91;;;2.24;67.74
59289;BME280;45056;47.602;9.886;2022-12-10T12:42:35;91662.53;;;2.24;67.46
59289;BME280;45056;47.602;9.886;2022-12-10T12:45:15;91669.81;;;2.23;67.61
59289;BME280;45056;47.602;9.886;2022-12-10T12:47:53;91680.56;;;2.23;67.56
59289;BME280;45056;47.602;9.886;2022-12-10T12:50:42;91670.25;;;2.22;67.28
59289;BME280;45056;47.602;9.886;2022-12-10T12:53:14;91672.16;;;2.21;67.22
59289;BME280;45056;47.602;9.886;2022-12-10T12:55:53;91667.97;;;2.20;67.20
59289;BME280;45056;47.602;9.886;2022-12-10T12:58:35;91673.34;;;2.20;67.44
59289;BME280;45056;47.602;9.886;2022-12-10T13:01:20;91676.81;;;2.21;67.20
59289;BME280;45056;47.602;9.886;2022-12-10T13:03:57;91684.41;;;2.22;67.25
59289;BME280;45056;47.602;9.886;2022-12-10T13:06:29;91681.72;;;2.22;67.27
59289;BME280;45056;47.602;9.886;2022-12-10T13:09:22;91684.84;;;2.21;67.16
59289;BME280;45056;47.602;9.886;2022-12-10T13:12:26;91696.75;;;2.20;67.01
59289;BME280;45056;47.602;9.886;2022-12-10T13:15:17;91689.13;;;2.18;66.94
59289;BME280;45056;47.602;9.886;2022-12-10T13:18:18;91688.72;;;2.20;66.87
59289;BME280;45056;47.602;9.886;2022-12-10T13:20:52;91691.72;;;2.22;66.65
59289;BME280;45056;47.602;9.886;2022-12-10T13:24:11;91693.97;;;2.23;66.59
59289;BME280;45056;47.602;9.886;2022-12-10T13:27:02;91700.13;;;2.24;66.49
59289;BME280;45056;47.602;9.886;2022-12-10T13:29:45;91704.81;;;2.20;66.50
59289;BME280;45056;47.602;9.886;2022-12-10T13:32:21;91715.53;;;2.20;66.77
59289;BME280;45056;47.602;9.886;2022-12-10T13:35:16;91720.16;;;2.19;66.52
59289;BME280;45056;47.602;9.886;2022-12-10T13:38:04;91729.78;;;2.16;66.36
59289;BME280;45056;47.602;9.886;2022-12-10T13:41:00;91735.97;;;2.13;66.51
59289;BME280;45056;47.602;9.886;2022-12-10T13:43:58;91736.06;;;2.10;66.57
59289;BME280;45056;47.602;9.886;2022-12-10T13:46:57;91740.34;;;2.07;66.92
59289;BME280;45056;47.602;9.886;2022-12-10T13:49:29;91740.75;;;2.06;66.74
59289;BME280;45056;47.602;9.886;2022-12-10T13:52:05;91737.75;;;2.04;66.49
59289;BME280;45056;47.602;9.886;2022-12-10T13:58:40;91752.81;;;1.97;66.75